createdAt,value
2023-11-18T00:03:18.800Z,4.50
2023-11-18T00:07:27.194Z,4.50
2023-11-18T00:11:35.816Z,4.48
2023-11-18T00:15:44.109Z,4.44
2023-11-18T00:19:52.559Z,4.42
2023-11-18T00:24:00.880Z,4.42
2023-11-18T00:28:10.419Z,4.42
2023-11-18T00:32:19.122Z,4.42
2023-11-18T00:36:27.879Z,4.38
2023-11-18T00:40:36.695Z,4.37
2023-11-18T00:44:45.093Z,4.38
2023-11-18T00:48:52.967Z,4.40
2023-11-18T00:53:01.346Z,4.42
2023-11-18T00:57:10.976Z,4.43
2023-11-18T01:01:19.651Z,4.40
2023-11-18T01:05:28.004Z,4.37
2023-11-18T01:09:40.352Z,4.36
2023-11-18T01:13:49.268Z,4.36
2023-11-18T01:17:57.255Z,4.37
2023-11-18T01:22:07.535Z,4.38
2023-11-18T01:26:16.558Z,4.37
2023-11-18T01:30:25.542Z,4.34
2023-11-18T01:34:35.690Z,4.33
2023-11-18T01:38:43.632Z,4.35
2023-11-18T01:42:51.927Z,4.36
2023-11-18T01:47:02.015Z,4.38
2023-11-18T01:51:13.366Z,4.38
2023-11-18T01:55:23.048Z,4.36
2023-11-18T01:59:34.838Z,4.34
2023-11-18T02:03:44.117Z,4.32
2023-11-18T02:07:53.244Z,4.32
2023-11-18T02:12:06.887Z,4.34
2023-11-18T02:16:15.852Z,4.32
2023-11-18T02:20:25.173Z,4.29
2023-11-18T02:24:38.079Z,4.25
2023-11-18T02:28:46.437Z,4.23
2023-11-18T02:32:58.006Z,4.23
2023-11-18T02:37:07.869Z,4.24
2023-11-18T02:41:17.521Z,4.24
2023-11-18T02:45:29.022Z,4.21
2023-11-18T02:49:38.902Z,4.16
2023-11-18T02:53:46.586Z,4.11
2023-11-18T02:57:55.134Z,4.09
2023-11-18T03:02:03.418Z,4.09
2023-11-18T03:06:12.586Z,4.09
2023-11-18T03:10:23.727Z,4.11
2023-11-18T03:14:31.709Z,4.10
2023-11-18T03:18:39.761Z,4.08
2023-11-18T03:22:47.589Z,4.08
2023-11-18T03:26:55.625Z,4.09
2023-11-18T03:31:03.784Z,4.10
2023-11-18T03:35:12.599Z,4.12
2023-11-18T03:39:22.659Z,4.15
2023-11-18T03:43:30.795Z,4.13
2023-11-18T03:47:39.003Z,4.10
2023-11-18T03:51:47.021Z,4.12
2023-11-18T03:55:56.040Z,4.15
2023-11-18T04:00:04.632Z,4.19
2023-11-18T04:04:14.209Z,4.21
2023-11-18T04:08:22.941Z,4.17
2023-11-18T04:12:31.904Z,4.16
2023-11-18T04:16:40.441Z,4.20
2023-11-18T04:20:51.614Z,4.25
2023-11-18T04:25:00.991Z,4.26
2023-11-18T04:29:08.930Z,4.23
2023-11-18T04:33:17.194Z,4.20
2023-11-18T04:37:25.717Z,4.18
2023-11-18T04:41:34.131Z,4.20
2023-11-18T04:45:41.676Z,4.22
2023-11-18T04:49:51.265Z,4.20
2023-11-18T04:53:59.637Z,4.15
2023-11-18T04:58:10.677Z,4.10
2023-11-18T05:02:18.489Z,4.09
2023-11-18T05:06:27.267Z,4.11
2023-11-18T05:10:36.101Z,4.04
2023-11-18T05:14:43.826Z,3.89
2023-11-18T05:18:53.263Z,3.80
2023-11-18T05:23:02.174Z,3.78
2023-11-18T05:27:10.815Z,3.75
2023-11-18T05:31:21.326Z,3.71
2023-11-18T05:35:30.202Z,3.73
2023-11-18T05:39:44.275Z,3.76
2023-11-18T05:43:53.686Z,3.76
2023-11-18T05:48:05.187Z,3.73
2023-11-18T05:52:14.369Z,3.71
2023-11-18T05:56:24.700Z,3.72
2023-11-18T06:00:39.152Z,3.72
2023-11-18T06:04:51.787Z,3.67
2023-11-18T06:09:06.157Z,3.62
2023-11-18T06:13:14.153Z,3.59
2023-11-18T06:17:23.160Z,3.61
2023-11-18T06:21:33.080Z,3.62
2023-11-18T06:25:42.458Z,3.62
2023-11-18T06:29:55.858Z,3.59
2023-11-18T06:34:05.331Z,3.59
2023-11-18T06:38:14.487Z,3.59
2023-11-18T06:42:25.028Z,3.60
2023-11-18T06:46:35.772Z,3.59
2023-11-18T06:50:45.610Z,3.59
2023-11-18T06:54:54.786Z,3.61
2023-11-18T06:59:05.262Z,3.68
2023-11-18T07:03:13.852Z,3.74
2023-11-18T07:07:23.108Z,3.80
2023-11-18T07:11:34.007Z,3.84
2023-11-18T07:15:42.927Z,3.85
2023-11-18T07:19:51.000Z,3.86
2023-11-18T07:23:59.763Z,3.88
2023-11-18T07:28:11.544Z,3.91
2023-11-18T07:32:21.344Z,3.97
2023-11-18T07:36:29.396Z,4.01
2023-11-18T07:40:39.298Z,4.01
2023-11-18T07:44:49.354Z,4.03
2023-11-18T07:48:58.149Z,4.05
2023-11-18T07:53:07.743Z,4.08
2023-11-18T07:57:16.322Z,4.14
2023-11-18T08:01:24.308Z,4.18
2023-11-18T08:05:33.063Z,4.20
2023-11-18T08:09:40.876Z,4.19
2023-11-18T08:13:48.617Z,4.18
2023-11-18T08:17:56.896Z,4.23
2023-11-18T08:22:07.331Z,4.31
2023-11-18T08:26:16.958Z,4.35
2023-11-18T08:30:26.514Z,4.38
2023-11-18T08:34:36.223Z,4.37
2023-11-18T08:38:49.336Z,4.39
2023-11-18T08:42:59.851Z,4.43
2023-11-18T08:47:14.052Z,4.49
2023-11-18T08:51:27.364Z,4.56
2023-11-18T08:55:43.913Z,4.59
2023-11-18T08:59:52.338Z,4.60
2023-11-18T09:04:03.117Z,4.58
2023-11-18T09:08:13.882Z,4.56
2023-11-18T09:12:21.512Z,4.59
2023-11-18T09:16:31.110Z,4.62
2023-11-18T09:20:41.044Z,4.64
2023-11-18T09:24:50.925Z,4.64
2023-11-18T09:28:59.641Z,4.59
2023-11-18T09:33:15.362Z,4.54
2023-11-18T09:37:24.796Z,4.50
2023-11-18T09:41:35.109Z,4.51
2023-11-18T09:45:49.681Z,4.55
2023-11-18T09:50:01.282Z,4.57
2023-11-18T09:54:16.328Z,4.59
2023-11-18T09:58:25.993Z,4.57
2023-11-18T10:02:34.892Z,4.55
2023-11-18T10:06:43.891Z,4.55
2023-11-18T10:10:53.007Z,4.59
2023-11-18T10:15:00.826Z,4.63
2023-11-18T10:19:10.609Z,4.68
2023-11-18T10:23:22.471Z,4.66
2023-11-18T10:27:33.199Z,4.62
2023-11-18T10:31:46.334Z,4.58
2023-11-18T10:35:57.056Z,4.57
2023-11-18T10:40:14.389Z,4.58
2023-11-18T10:44:25.270Z,4.59
2023-11-18T10:48:33.238Z,4.61
2023-11-18T10:52:42.808Z,4.66
2023-11-18T10:56:57.967Z,4.64
2023-11-18T11:01:08.094Z,4.62
2023-11-18T11:05:21.204Z,4.67
2023-11-18T11:09:30.032Z,4.74
2023-11-18T11:13:39.462Z,4.81
2023-11-18T11:18:03.687Z,4.87
2023-11-18T11:22:17.086Z,4.98
2023-11-18T11:26:31.274Z,5.01
2023-11-18T11:30:46.466Z,5.02
2023-11-18T11:34:58.875Z,5.03
2023-11-18T11:39:11.685Z,5.05
2023-11-18T11:43:22.969Z,5.01
2023-11-18T11:47:37.843Z,4.93
2023-11-18T11:51:50.292Z,4.86
2023-11-18T11:56:07.391Z,4.86
2023-11-18T12:00:21.324Z,4.89
2023-11-18T12:04:30.257Z,4.87
2023-11-18T12:08:41.536Z,4.81
2023-11-18T12:12:49.946Z,4.78
2023-11-18T12:17:09.907Z,4.78
2023-11-18T12:21:54.748Z,4.82
2023-11-18T12:26:06.232Z,4.89
2023-11-18T12:30:53.502Z,4.94
2023-11-18T12:35:02.137Z,5.00
2023-11-18T12:39:52.124Z,5.04
2023-11-18T12:44:19.111Z,5.02
2023-11-18T12:48:29.165Z,5.05
2023-11-18T12:52:36.929Z,5.10
2023-11-18T12:56:49.800Z,5.12
2023-11-18T13:00:57.635Z,5.14
2023-11-18T13:05:11.379Z,5.12
2023-11-18T13:09:27.691Z,5.11
2023-11-18T13:13:37.820Z,5.12
2023-11-18T13:17:46.268Z,5.14
2023-11-18T13:21:56.203Z,5.19
2023-11-18T13:26:06.986Z,5.18
2023-11-18T13:30:18.680Z,5.20
2023-11-18T13:34:27.263Z,5.17
2023-11-18T13:38:36.102Z,5.14
2023-11-18T13:42:44.080Z,5.13
2023-11-18T13:46:52.202Z,5.14
2023-11-18T13:51:00.448Z,5.15
2023-11-18T13:55:10.393Z,5.12
2023-11-18T13:59:19.803Z,5.06
2023-11-18T14:03:28.861Z,4.99
2023-11-18T14:07:41.821Z,4.92
2023-11-18T14:11:51.372Z,4.88
2023-11-18T14:15:59.378Z,4.85
2023-11-18T14:20:13.878Z,4.85
2023-11-18T14:24:24.386Z,4.85
2023-11-18T14:28:32.630Z,4.85
2023-11-18T14:32:41.640Z,4.83
2023-11-18T14:36:50.363Z,4.74
2023-11-18T14:41:00.129Z,4.73
2023-11-18T14:45:11.320Z,4.75
2023-11-18T14:49:19.671Z,4.80
2023-11-18T14:53:27.619Z,4.87
2023-11-18T14:57:37.056Z,4.88
2023-11-18T15:01:45.644Z,4.89
2023-11-18T15:05:53.512Z,4.88
2023-11-18T15:10:05.227Z,4.88
2023-11-18T15:14:16.722Z,4.92
2023-11-18T15:18:24.902Z,5.02
2023-11-18T15:22:33.334Z,5.06
2023-11-18T15:26:40.984Z,5.06
2023-11-18T15:30:50.206Z,5.02
2023-11-18T15:35:00.557Z,4.96
2023-11-18T15:39:08.966Z,4.93
2023-11-18T15:43:17.250Z,4.94
2023-11-18T15:47:26.213Z,4.99
2023-11-18T15:51:34.381Z,5.02
2023-11-18T15:55:45.107Z,5.04
2023-11-18T15:59:53.161Z,5.04
2023-11-18T16:04:02.721Z,4.99
2023-11-18T16:08:11.557Z,4.97
2023-11-18T16:12:19.174Z,4.96
2023-11-18T16:16:28.541Z,4.99
2023-11-18T16:20:36.410Z,4.98
2023-11-18T16:24:44.315Z,4.98
2023-11-18T16:28:51.859Z,4.97
2023-11-18T16:33:00.822Z,4.94
2023-11-18T16:37:12.675Z,4.91
2023-11-18T16:41:23.173Z,4.95
2023-11-18T16:45:31.768Z,5.00
2023-11-18T16:49:41.703Z,5.04
2023-11-18T16:53:50.860Z,5.04
2023-11-18T16:57:59.227Z,5.04
2023-11-18T17:02:11.809Z,5.03
2023-11-18T17:06:21.470Z,5.07
2023-11-18T17:10:29.293Z,5.14
2023-11-18T17:14:37.375Z,5.19
2023-11-18T17:18:45.067Z,5.21
2023-11-18T17:22:53.227Z,5.21
2023-11-18T17:27:04.988Z,5.18
2023-11-18T17:31:13.156Z,5.17
2023-11-18T17:35:21.911Z,5.19
2023-11-18T17:39:30.275Z,5.22
2023-11-18T17:43:40.643Z,5.22
2023-11-18T17:47:48.862Z,5.15
2023-11-18T17:51:57.515Z,4.97
2023-11-18T17:56:06.814Z,4.74
2023-11-18T18:00:21.863Z,4.64
2023-11-18T18:04:30.149Z,4.61
2023-11-18T18:08:37.574Z,4.64
2023-11-18T18:12:48.418Z,4.67
2023-11-18T18:16:58.347Z,4.67
2023-11-18T18:21:10.638Z,4.66
2023-11-18T18:25:19.654Z,4.69
2023-11-18T18:29:28.877Z,4.74
2023-11-18T18:33:39.554Z,4.77
2023-11-18T18:37:47.930Z,4.77
2023-11-18T18:41:55.832Z,4.77
2023-11-18T18:46:04.883Z,4.74
2023-11-18T18:50:15.332Z,4.74
2023-11-18T18:54:24.409Z,4.76
2023-11-18T18:58:33.185Z,4.80
2023-11-18T19:02:41.426Z,4.82
2023-11-18T19:06:50.827Z,4.86
2023-11-18T19:10:59.021Z,4.85
2023-11-18T19:15:09.149Z,4.83
2023-11-18T19:19:19.958Z,4.79
2023-11-18T19:23:29.002Z,4.80
2023-11-18T19:27:43.740Z,4.83
2023-11-18T19:31:53.465Z,4.88
2023-11-18T19:36:01.713Z,4.85
2023-11-18T19:40:12.464Z,4.76
2023-11-18T19:44:20.316Z,4.66
2023-11-18T19:48:32.057Z,4.56
2023-11-18T19:52:40.617Z,4.49
2023-11-18T19:56:50.917Z,4.48
2023-11-18T20:00:59.143Z,4.50
2023-11-18T20:05:12.838Z,4.47
2023-11-18T20:09:23.008Z,4.45
2023-11-18T20:13:31.525Z,4.41
2023-11-18T20:17:39.525Z,4.36
2023-11-18T20:21:47.576Z,4.31
2023-11-18T20:25:55.661Z,4.27
2023-11-18T20:30:06.210Z,4.18
2023-11-18T20:34:16.151Z,4.06
2023-11-18T20:38:24.292Z,3.93
2023-11-18T20:42:32.392Z,3.82
2023-11-18T20:46:41.244Z,3.75
2023-11-18T20:50:52.566Z,3.67
2023-11-18T20:55:01.149Z,3.58
2023-11-18T20:59:10.337Z,3.50
2023-11-18T21:03:19.074Z,3.40
2023-11-18T21:07:30.371Z,3.35
2023-11-18T21:11:39.836Z,3.33
2023-11-18T21:15:47.508Z,3.34
2023-11-18T21:19:55.897Z,3.32
2023-11-18T21:24:06.445Z,3.29
2023-11-18T21:28:14.330Z,3.25
2023-11-18T21:32:23.256Z,3.18
2023-11-18T21:36:32.704Z,3.12
2023-11-18T21:40:40.528Z,3.08
2023-11-18T21:44:48.588Z,3.08
2023-11-18T21:48:56.924Z,3.10
2023-11-18T21:53:08.779Z,3.11
2023-11-18T21:57:18.598Z,3.10
2023-11-18T22:01:26.598Z,3.09
2023-11-18T22:05:34.465Z,3.07
2023-11-18T22:09:42.316Z,3.04
2023-11-18T22:13:50.729Z,3.05
2023-11-18T22:17:59.785Z,3.07
2023-11-18T22:22:08.304Z,3.11
2023-11-18T22:26:16.374Z,3.13
2023-11-18T22:30:25.353Z,3.11
2023-11-18T22:34:33.782Z,3.07
2023-11-18T22:38:42.581Z,3.02
2023-11-18T22:42:53.301Z,3.01
2023-11-18T22:47:04.081Z,3.02
2023-11-18T22:51:12.438Z,3.04
2023-11-18T22:55:21.267Z,3.02
2023-11-18T22:59:29.401Z,2.97
2023-11-18T23:03:37.941Z,2.93
2023-11-18T23:07:46.479Z,2.89
2023-11-18T23:11:55.370Z,2.85
2023-11-18T23:16:04.942Z,2.85
2023-11-18T23:20:13.816Z,2.85
2023-11-18T23:24:21.998Z,2.86
2023-11-18T23:28:29.598Z,2.84
2023-11-18T23:32:37.497Z,2.80
2023-11-18T23:36:45.318Z,2.75
2023-11-18T23:40:53.195Z,2.71
2023-11-18T23:45:05.806Z,2.72
2023-11-18T23:49:14.180Z,2.74
2023-11-18T23:53:22.796Z,2.76
2023-11-18T23:57:31.821Z,2.75
